sensor_id;sensor_type;location;lat;lon;timestamp;temperature;humidity
5461;DHT22;2753;49.196;8.286;2024-03-29T00:01:16;7.70;95.90
5461;DHT22;2753;49.196;8.286;2024-03-29T00:03:42;7.80;95.80
5461;DHT22;2753;49.196;8.286;2024-03-29T00:06:08;7.80;95.70
5461;DHT22;2753;49.196;8.286;2024-03-29T00:08:34;7.90;95.70
5461;DHT22;2753;49.196;8.286;2024-03-29T00:11:00;7.90;95.60
5461;DHT22;2753;49.196;8.286;2024-03-29T00:13:25;7.80;95.60
5461;DHT22;2753;49.196;8.286;2024-03-29T00:15:51;7.80;95.60
5461;DHT22;2753;49.196;8.286;2024-03-29T00:18:17;7.80;95.50
5461;DHT22;2753;49.196;8.286;2024-03-29T00:20:42;7.80;95.60
5461;DHT22;2753;49.196;8.286;2024-03-29T00:23:08;7.70;95.60
5461;DHT22;2753;49.196;8.286;2024-03-29T00:25:34;7.80;95.60
5461;DHT22;2753;49.196;8.286;2024-03-29T00:27:59;7.80;95.60
5461;DHT22;2753;49.196;8.286;2024-03-29T00:30:26;7.70;95.60
5461;DHT22;2753;49.196;8.286;2024-03-29T00:32:52;7.70;95.90
5461;DHT22;2753;49.196;8.286;2024-03-29T00:35:18;7.70;95.80
5461;DHT22;2753;49.196;8.286;2024-03-29T00:37:45;7.70;95.80
5461;DHT22;2753;49.196;8.286;2024-03-29T00:40:11;7.70;95.70
5461;DHT22;2753;49.196;8.286;2024-03-29T00:42:37;7.70;95.90
5461;DHT22;2753;49.196;8.286;2024-03-29T00:45:02;7.70;95.90
5461;DHT22;2753;49.196;8.286;2024-03-29T00:47:28;7.70;96.10
5461;DHT22;2753;49.196;8.286;2024-03-29T00:49:54;7.70;96.10
5461;DHT22;2753;49.196;8.286;2024-03-29T00:52:20;7.70;96.00
5461;DHT22;2753;49.196;8.286;2024-03-29T00:54:45;7.70;96.00
5461;DHT22;2753;49.196;8.286;2024-03-29T00:57:11;7.60;96.20
5461;DHT22;2753;49.196;8.286;2024-03-29T00:59:40;7.60;96.20
5461;DHT22;2753;49.196;8.286;2024-03-29T01:02:05;7.60;96.00
5461;DHT22;2753;49.196;8.286;2024-03-29T01:04:31;7.60;96.00
5461;DHT22;2753;49.196;8.286;2024-03-29T01:06:57;7.70;95.90
5461;DHT22;2753;49.196;8.286;2024-03-29T01:09:22;7.60;95.70
5461;DHT22;2753;49.196;8.286;2024-03-29T01:11:50;7.60;96.00
5461;DHT22;2753;49.196;8.286;2024-03-29T01:14:16;7.50;96.10
5461;DHT22;2753;49.196;8.286;2024-03-29T01:16:42;7.60;96.10
5461;DHT22;2753;49.196;8.286;2024-03-29T01:19:08;7.60;96.10
5461;DHT22;2753;49.196;8.286;2024-03-29T01:21:35;7.60;96.00
5461;DHT22;2753;49.196;8.286;2024-03-29T01:24:02;7.60;96.00
5461;DHT22;2753;49.196;8.286;2024-03-29T01:26:28;7.50;96.40
5461;DHT22;2753;49.196;8.286;2024-03-29T01:28:53;7.60;96.00
5461;DHT22;2753;49.196;8.286;2024-03-29T01:31:22;7.60;96.00
5461;DHT22;2753;49.196;8.286;2024-03-29T01:33:48;7.60;95.80
5461;DHT22;2753;49.196;8.286;2024-03-29T01:36:14;7.60;95.70
5461;DHT22;2753;49.196;8.286;2024-03-29T01:38:41;7.60;96.00
5461;DHT22;2753;49.196;8.286;2024-03-29T01:41:07;7.50;96.00
5461;DHT22;2753;49.196;8.286;2024-03-29T01:43:36;7.50;96.20
5461;DHT22;2753;49.196;8.286;2024-03-29T01:46:02;7.50;96.30
5461;DHT22;2753;49.196;8.286;2024-03-29T01:48:28;7.40;96.40
5461;DHT22;2753;49.196;8.286;2024-03-29T01:50:56;7.40;96.40
5461;DHT22;2753;49.196;8.286;2024-03-29T01:53:23;7.00;96.30
5461;DHT22;2753;49.196;8.286;2024-03-29T01:55:49;7.40;96.80
5461;DHT22;2753;49.196;8.286;2024-03-29T01:58:15;7.40;96.40
5461;DHT22;2753;49.196;8.286;2024-03-29T02:00:52;7.40;96.40
5461;DHT22;2753;49.196;8.286;2024-03-29T02:03:19;7.40;96.60
5461;DHT22;2753;49.196;8.286;2024-03-29T02:05:46;7.40;96.50
5461;DHT22;2753;49.196;8.286;2024-03-29T02:08:13;7.40;96.60
5461;DHT22;2753;49.196;8.286;2024-03-29T02:10:43;7.40;96.50
5461;DHT22;2753;49.196;8.286;2024-03-29T02:13:11;7.40;96.50
5461;DHT22;2753;49.196;8.286;2024-03-29T02:15:37;7.40;96.50
5461;DHT22;2753;49.196;8.286;2024-03-29T02:18:02;7.40;96.60
5461;DHT22;2753;49.196;8.286;2024-03-29T02:20:28;7.40;96.70
5461;DHT22;2753;49.196;8.286;2024-03-29T02:23:00;7.40;96.50
5461;DHT22;2753;49.196;8.286;2024-03-29T02:25:27;7.40;96.70
5461;DHT22;2753;49.196;8.286;2024-03-29T02:27:54;7.40;96.90
5461;DHT22;2753;49.196;8.286;2024-03-29T02:30:20;7.40;96.80
5461;DHT22;2753;49.196;8.286;2024-03-29T02:32:46;7.50;96.70
5461;DHT22;2753;49.196;8.286;2024-03-29T02:35:11;7.50;97.00
5461;DHT22;2753;49.196;8.286;2024-03-29T02:37:37;7.40;97.40
5461;DHT22;2753;49.196;8.286;2024-03-29T02:40:04;7.40;97.00
5461;DHT22;2753;49.196;8.286;2024-03-29T02:42:31;7.40;97.20
5461;DHT22;2753;49.196;8.286;2024-03-29T02:44:57;7.30;97.20
5461;DHT22;2753;49.196;8.286;2024-03-29T02:47:23;7.30;97.10
5461;DHT22;2753;49.196;8.286;2024-03-29T02:49:49;7.40;96.80
5461;DHT22;2753;49.196;8.286;2024-03-29T02:52:14;7.40;96.60
5461;DHT22;2753;49.196;8.286;2024-03-29T02:54:43;7.40;96.70
5461;DHT22;2753;49.196;8.286;2024-03-29T02:57:09;7.40;96.60
5461;DHT22;2753;49.196;8.286;2024-03-29T02:59:34;7.40;96.50
5461;DHT22;2753;49.196;8.286;2024-03-29T03:02:00;7.40;96.60
5461;DHT22;2753;49.196;8.286;2024-03-29T03:04:26;7.40;96.50
5461;DHT22;2753;49.196;8.286;2024-03-29T03:06:52;7.50;96.60
5461;DHT22;2753;49.196;8.286;2024-03-29T03:09:17;7.50;96.60
5461;DHT22;2753;49.196;8.286;2024-03-29T03:12:01;7.50;96.70
5461;DHT22;2753;49.196;8.286;2024-03-29T03:14:27;7.40;96.90
5461;DHT22;2753;49.196;8.286;2024-03-29T03:16:53;7.40;97.20
5461;DHT22;2753;49.196;8.286;2024-03-29T03:19:19;7.40;97.20
5461;DHT22;2753;49.196;8.286;2024-03-29T03:21:44;7.40;97.60
5461;DHT22;2753;49.196;8.286;2024-03-29T03:24:10;7.40;97.30
5461;DHT22;2753;49.196;8.286;2024-03-29T03:26:37;7.40;97.20
5461;DHT22;2753;49.196;8.286;2024-03-29T03:29:04;7.50;97.00
5461;DHT22;2753;49.196;8.286;2024-03-29T03:31:29;7.50;97.00
5461;DHT22;2753;49.196;8.286;2024-03-29T03:33:55;7.50;97.60
5461;DHT22;2753;49.196;8.286;2024-03-29T03:36:21;7.50;97.30
5461;DHT22;2753;49.196;8.286;2024-03-29T03:38:46;7.50;97.20
5461;DHT22;2753;49.196;8.286;2024-03-29T03:41:12;7.50;97.20
5461;DHT22;2753;49.196;8.286;2024-03-29T03:43:38;7.60;97.30
5461;DHT22;2753;49.196;8.286;2024-03-29T03:46:03;7.60;97.40
5461;DHT22;2753;49.196;8.286;2024-03-29T03:48:29;7.60;97.50
5461;DHT22;2753;49.196;8.286;2024-03-29T03:50:56;7.60;97.60
5461;DHT22;2753;49.196;8.286;2024-03-29T03:53:21;7.60;97.50
5461;DHT22;2753;49.196;8.286;2024-03-29T03:55:47;7.60;98.20
5461;DHT22;2753;49.196;8.286;2024-03-29T03:58:13;7.60;97.90
5461;DHT22;2753;49.196;8.286;2024-03-29T04:00:43;7.60;97.80
5461;DHT22;2753;49.196;8.286;2024-03-29T04:03:09;7.60;97.80
5461;DHT22;2753;49.196;8.286;2024-03-29T04:05:37;7.60;97.60
5461;DHT22;2753;49.196;8.286;2024-03-29T04:08:03;7.60;97.90
5461;DHT22;2753;49.196;8.286;2024-03-29T04:10:28;7.60;98.00
5461;DHT22;2753;49.196;8.286;2024-03-29T04:12:54;7.60;98.30
5461;DHT22;2753;49.196;8.286;2024-03-29T04:15:20;7.50;98.30
5461;DHT22;2753;49.196;8.286;2024-03-29T04:17:45;7.50;98.40
5461;DHT22;2753;49.196;8.286;2024-03-29T04:20:11;7.60;98.40
5461;DHT22;2753;49.196;8.286;2024-03-29T04:22:36;7.50;98.50
5461;DHT22;2753;49.196;8.286;2024-03-29T04:25:02;7.60;98.50
5461;DHT22;2753;49.196;8.286;2024-03-29T04:27:28;7.60;98.50
5461;DHT22;2753;49.196;8.286;2024-03-29T04:29:54;7.60;98.50
5461;DHT22;2753;49.196;8.286;2024-03-29T04:32:20;7.60;98.50
5461;DHT22;2753;49.196;8.286;2024-03-29T04:34:50;7.60;98.60
5461;DHT22;2753;49.196;8.286;2024-03-29T04:37:16;7.60;98.60
5461;DHT22;2753;49.196;8.286;2024-03-29T04:39:43;7.60;99.10
5461;DHT22;2753;49.196;8.286;2024-03-29T04:42:09;7.70;98.90
5461;DHT22;2753;49.196;8.286;2024-03-29T04:44:34;7.60;98.70
5461;DHT22;2753;49.196;8.286;2024-03-29T04:47:00;7.60;99.00
5461;DHT22;2753;49.196;8.286;2024-03-29T04:49:27;7.60;98.80
5461;DHT22;2753;49.196;8.286;2024-03-29T04:52:07;7.60;98.80
5461;DHT22;2753;49.196;8.286;2024-03-29T04:54:34;7.60;98.80
5461;DHT22;2753;49.196;8.286;2024-03-29T04:57:00;7.60;98.90
5461;DHT22;2753;49.196;8.286;2024-03-29T04:59:32;7.60;98.80
5461;DHT22;2753;49.196;8.286;2024-03-29T05:02:01;7.60;98.70
5461;DHT22;2753;49.196;8.286;2024-03-29T05:04:27;7.60;98.70
5461;DHT22;2753;49.196;8.286;2024-03-29T05:06:59;7.60;99.10
5461;DHT22;2753;49.196;8.286;2024-03-29T05:09:28;7.70;99.10
5461;DHT22;2753;49.196;8.286;2024-03-29T05:11:54;7.60;98.90
5461;DHT22;2753;49.196;8.286;2024-03-29T05:14:20;7.70;98.90
5461;DHT22;2753;49.196;8.286;2024-03-29T05:16:48;7.70;98.70
5461;DHT22;2753;49.196;8.286;2024-03-29T05:19:14;7.70;98.60
5461;DHT22;2753;49.196;8.286;2024-03-29T05:21:41;7.70;98.80
5461;DHT22;2753;49.196;8.286;2024-03-29T05:24:10;7.60;99.00
5461;DHT22;2753;49.196;8.286;2024-03-29T05:26:35;7.70;98.80
5461;DHT22;2753;49.196;8.286;2024-03-29T05:29:01;7.60;98.90
5461;DHT22;2753;49.196;8.286;2024-03-29T05:31:29;7.60;98.80
5461;DHT22;2753;49.196;8.286;2024-03-29T05:33:55;8.20;99.20
5461;DHT22;2753;49.196;8.286;2024-03-29T05:36:20;7.70;98.90
5461;DHT22;2753;49.196;8.286;2024-03-29T05:38:46;7.60;98.80
5461;DHT22;2753;49.196;8.286;2024-03-29T05:41:12;7.60;99.00
5461;DHT22;2753;49.196;8.286;2024-03-29T05:43:41;7.60;99.10
5461;DHT22;2753;49.196;8.286;2024-03-29T05:46:07;7.60;99.00
5461;DHT22;2753;49.196;8.286;2024-03-29T05:48:32;7.60;98.80
5461;DHT22;2753;49.196;8.286;2024-03-29T05:50:58;7.60;98.80
5461;DHT22;2753;49.196;8.286;2024-03-29T05:53:24;7.70;98.80
5461;DHT22;2753;49.196;8.286;2024-03-29T05:55:49;7.60;98.90
5461;DHT22;2753;49.196;8.286;2024-03-29T05:58:15;7.60;98.80
5461;DHT22;2753;49.196;8.286;2024-03-29T06:00:43;7.70;98.80
5461;DHT22;2753;49.196;8.286;2024-03-29T06:03:09;7.70;98.90
5461;DHT22;2753;49.196;8.286;2024-03-29T06:05:35;7.70;99.20
5461;DHT22;2753;49.196;8.286;2024-03-29T06:08:01;7.70;99.10
5461;DHT22;2753;49.196;8.286;2024-03-29T06:10:26;7.70;99.20
5461;DHT22;2753;49.196;8.286;2024-03-29T06:12:52;7.70;99.10
5461;DHT22;2753;49.196;8.286;2024-03-29T06:15:18;7.70;99.00
5461;DHT22;2753;49.196;8.286;2024-03-29T06:18:02;7.80;99.50
5461;DHT22;2753;49.196;8.286;2024-03-29T06:20:28;7.80;99.30
5461;DHT22;2753;49.196;8.286;2024-03-29T06:22:53;7.80;99.30
5461;DHT22;2753;49.196;8.286;2024-03-29T06:25:19;7.80;99.60
5461;DHT22;2753;49.196;8.286;2024-03-29T06:27:45;7.80;99.30
5461;DHT22;2753;49.196;8.286;2024-03-29T06:30:13;7.80;99.30
5461;DHT22;2753;49.196;8.286;2024-03-29T06:32:40;7.80;99.40
5461;DHT22;2753;49.196;8.286;2024-03-29T06:35:06;7.80;99.40
5461;DHT22;2753;49.196;8.286;2024-03-29T06:37:32;7.80;99.50
5461;DHT22;2753;49.196;8.286;2024-03-29T06:39:58;7.80;99.40
5461;DHT22;2753;49.196;8.286;2024-03-29T06:42:23;7.80;99.30
5461;DHT22;2753;49.196;8.286;2024-03-29T06:44:49;7.80;99.20
5461;DHT22;2753;49.196;8.286;2024-03-29T06:47:15;7.80;99.20
5461;DHT22;2753;49.196;8.286;2024-03-29T06:49:41;7.90;99.10
5461;DHT22;2753;49.196;8.286;2024-03-29T06:52:06;7.90;99.10
5461;DHT22;2753;49.196;8.286;2024-03-29T06:54:32;7.90;99.10
5461;DHT22;2753;49.196;8.286;2024-03-29T06:56:59;7.90;99.00
5461;DHT22;2753;49.196;8.286;2024-03-29T06:59:25;7.90;99.20
5461;DHT22;2753;49.196;8.286;2024-03-29T07:01:51;7.90;99.30
5461;DHT22;2753;49.196;8.286;2024-03-29T07:04:21;7.90;99.40
5461;DHT22;2753;49.196;8.286;2024-03-29T07:06:47;7.90;99.60
5461;DHT22;2753;49.196;8.286;2024-03-29T07:09:22;8.00;99.50
5461;DHT22;2753;49.196;8.286;2024-03-29T07:11:50;7.90;99.50
5461;DHT22;2753;49.196;8.286;2024-03-29T07:14:17;8.00;99.50
5461;DHT22;2753;49.196;8.286;2024-03-29T07:16:44;8.00;99.50
5461;DHT22;2753;49.196;8.286;2024-03-29T07:19:10;8.00;99.50
5461;DHT22;2753;49.196;8.286;2024-03-29T07:21:38;8.00;99.40
5461;DHT22;2753;49.196;8.286;2024-03-29T07:24:05;8.00;99.40
5461;DHT22;2753;49.196;8.286;2024-03-29T07:26:30;8.00;99.40
5461;DHT22;2753;49.196;8.286;2024-03-29T07:28:56;8.00;99.50
5461;DHT22;2753;49.196;8.286;2024-03-29T07:31:22;8.00;99.50
5461;DHT22;2753;49.196;8.286;2024-03-29T07:33:47;8.10;99.90
5461;DHT22;2753;49.196;8.286;2024-03-29T07:36:13;8.10;99.60
5461;DHT22;2753;49.196;8.286;2024-03-29T07:38:40;8.00;99.50
5461;DHT22;2753;49.196;8.286;2024-03-29T07:41:05;8.10;99.80
5461;DHT22;2753;49.196;8.286;2024-03-29T07:43:52;8.10;99.70
5461;DHT22;2753;49.196;8.286;2024-03-29T07:46:19;8.10;99.70
5461;DHT22;2753;49.196;8.286;2024-03-29T07:48:45;8.10;99.60
5461;DHT22;2753;49.196;8.286;2024-03-29T07:51:10;8.10;99.80
5461;DHT22;2753;49.196;8.286;2024-03-29T07:53:36;8.10;99.90
5461;DHT22;2753;49.196;8.286;2024-03-29T07:56:01;8.10;99.90
5461;DHT22;2753;49.196;8.286;2024-03-29T07:58:27;8.10;99.90
5461;DHT22;2753;49.196;8.286;2024-03-29T08:00:53;8.10;99.90
5461;DHT22;2753;49.196;8.286;2024-03-29T08:03:19;8.10;99.90
5461;DHT22;2753;49.196;8.286;2024-03-29T08:06:01;8.20;99.90
5461;DHT22;2753;49.196;8.286;2024-03-29T08:08:30;8.20;99.90
5461;DHT22;2753;49.196;8.286;2024-03-29T08:10:56;8.20;99.90
5461;DHT22;2753;49.196;8.286;2024-03-29T08:13:21;8.20;99.90
5461;DHT22;2753;49.196;8.286;2024-03-29T08:15:48;8.20;99.90
5461;DHT22;2753;49.196;8.286;2024-03-29T08:18:14;8.10;99.90
5461;DHT22;2753;49.196;8.286;2024-03-29T08:20:40;8.10;99.90
5461;DHT22;2753;49.196;8.286;2024-03-29T08:23:05;8.10;99.90
5461;DHT22;2753;49.196;8.286;2024-03-29T08:25:31;8.10;99.90
5461;DHT22;2753;49.196;8.286;2024-03-29T08:27:57;8.10;99.90
5461;DHT22;2753;49.196;8.286;2024-03-29T08:30:26;8.10;99.90
5461;DHT22;2753;49.196;8.286;2024-03-29T08:32:52;8.20;99.90
5461;DHT22;2753;49.196;8.286;2024-03-29T08:35:20;8.10;99.90
5461;DHT22;2753;49.196;8.286;2024-03-29T08:37:49;8.10;99.90
5461;DHT22;2753;49.196;8.286;2024-03-29T08:40:16;8.20;99.90
5461;DHT22;2753;49.196;8.286;2024-03-29T08:42:41;8.20;99.90
5461;DHT22;2753;49.196;8.286;2024-03-29T08:45:07;8.10;99.90
5461;DHT22;2753;49.196;8.286;2024-03-29T08:47:34;8.10;99.90
5461;DHT22;2753;49.196;8.286;2024-03-29T08:49:59;8.20;99.90
5461;DHT22;2753;49.196;8.286;2024-03-29T08:52:25;8.20;99.90
5461;DHT22;2753;49.196;8.286;2024-03-29T08:54:51;8.20;99.90
5461;DHT22;2753;49.196;8.286;2024-03-29T08:57:17;8.20;99.90
5461;DHT22;2753;49.196;8.286;2024-03-29T08:59:43;8.20;99.90
5461;DHT22;2753;49.196;8.286;2024-03-29T09:02:08;8.30;99.90
5461;DHT22;2753;49.196;8.286;2024-03-29T09:04:34;8.30;99.90
5461;DHT22;2753;49.196;8.286;2024-03-29T09:07:01;8.30;99.90
5461;DHT22;2753;49.196;8.286;2024-03-29T09:09:31;8.40;99.90
5461;DHT22;2753;49.196;8.286;2024-03-29T09:11:57;8.40;99.90
5461;DHT22;2753;49.196;8.286;2024-03-29T09:14:23;8.40;99.90
5461;DHT22;2753;49.196;8.286;2024-03-29T09:16:49;8.50;99.90
5461;DHT22;2753;49.196;8.286;2024-03-29T09:19:15;8.60;99.90
5461;DHT22;2753;49.196;8.286;2024-03-29T09:21:41;8.50;99.90
5461;DHT22;2753;49.196;8.286;2024-03-29T09:24:07;8.50;99.90
5461;DHT22;2753;49.196;8.286;2024-03-29T09:26:33;8.60;99.90
5461;DHT22;2753;49.196;8.286;2024-03-29T09:28:59;8.60;99.90
5461;DHT22;2753;49.196;8.286;2024-03-29T09:31:25;8.60;99.90
5461;DHT22;2753;49.196;8.286;2024-03-29T09:33:50;8.60;99.90
5461;DHT22;2753;49.196;8.286;2024-03-29T09:36:22;8.70;99.90
5461;DHT22;2753;49.196;8.286;2024-03-29T09:38:50;8.70;99.90
5461;DHT22;2753;49.196;8.286;2024-03-29T09:41:18;8.80;99.90
5461;DHT22;2753;49.196;8.286;2024-03-29T09:43:46;8.90;99.90
5461;DHT22;2753;49.196;8.286;2024-03-29T09:46:12;9.00;99.90
5461;DHT22;2753;49.196;8.286;2024-03-29T09:48:42;9.00;99.90
5461;DHT22;2753;49.196;8.286;2024-03-29T09:51:11;9.00;99.90
5461;DHT22;2753;49.196;8.286;2024-03-29T09:53:42;9.10;99.90
5461;DHT22;2753;49.196;8.286;2024-03-29T09:56:08;9.20;99.90
5461;DHT22;2753;49.196;8.286;2024-03-29T09:58:35;9.30;99.90
5461;DHT22;2753;49.196;8.286;2024-03-29T10:01:03;9.30;99.90
5461;DHT22;2753;49.196;8.286;2024-03-29T10:03:30;9.30;99.90
5461;DHT22;2753;49.196;8.286;2024-03-29T10:06:00;9.30;99.90
5461;DHT22;2753;49.196;8.286;2024-03-29T10:08:30;9.30;99.90
5461;DHT22;2753;49.196;8.286;2024-03-29T10:10:57;9.30;99.90
5461;DHT22;2753;49.196;8.286;2024-03-29T10:13:23;9.40;99.90
5461;DHT22;2753;49.196;8.286;2024-03-29T10:15:50;9.40;99.90
5461;DHT22;2753;49.196;8.286;2024-03-29T10:18:17;9.40;99.90
5461;DHT22;2753;49.196;8.286;2024-03-29T10:20:45;9.40;99.90
5461;DHT22;2753;49.196;8.286;2024-03-29T10:23:11;9.40;99.90
5461;DHT22;2753;49.196;8.286;2024-03-29T10:25:36;9.40;99.90
5461;DHT22;2753;49.196;8.286;2024-03-29T10:28:02;9.40;99.90
5461;DHT22;2753;49.196;8.286;2024-03-29T10:30:32;9.40;99.90
5461;DHT22;2753;49.196;8.286;2024-03-29T10:32:58;9.50;99.90
5461;DHT22;2753;49.196;8.286;2024-03-29T10:35:27;9.50;99.90
5461;DHT22;2753;49.196;8.286;2024-03-29T10:37:55;9.50;99.90
5461;DHT22;2753;49.196;8.286;2024-03-29T10:40:22;9.60;99.90
5461;DHT22;2753;49.196;8.286;2024-03-29T10:42:50;9.60;99.90
5461;DHT22;2753;49.196;8.286;2024-03-29T10:45:17;9.70;99.90
5461;DHT22;2753;49.196;8.286;2024-03-29T10:47:43;9.80;99.90
5461;DHT22;2753;49.196;8.286;2024-03-29T10:50:13;9.80;99.90
5461;DHT22;2753;49.196;8.286;2024-03-29T10:52:43;9.80;99.90
5461;DHT22;2753;49.196;8.286;2024-03-29T10:55:12;9.80;99.90
5461;DHT22;2753;49.196;8.286;2024-03-29T10:57:42;9.90;99.90
5461;DHT22;2753;49.196;8.286;2024-03-29T11:00:12;9.80;99.90
5461;DHT22;2753;49.196;8.286;2024-03-29T11:03:19;9.90;99.90
5461;DHT22;2753;49.196;8.286;2024-03-29T11:05:50;9.90;99.90
5461;DHT22;2753;49.196;8.286;2024-03-29T11:08:23;9.90;99.90
5461;DHT22;2753;49.196;8.286;2024-03-29T11:10:51;10.00;99.90
5461;DHT22;2753;49.196;8.286;2024-03-29T11:16:02;10.20;99.90
5461;DHT22;2753;49.196;8.286;2024-03-29T11:18:32;10.20;99.90
5461;DHT22;2753;49.196;8.286;2024-03-29T11:20:58;10.30;99.90
5461;DHT22;2753;49.196;8.286;2024-03-29T11:23:27;10.30;99.90
5461;DHT22;2753;49.196;8.286;2024-03-29T11:25:56;10.40;99.90
5461;DHT22;2753;49.196;8.286;2024-03-29T11:28:30;10.50;99.90
5461;DHT22;2753;49.196;8.286;2024-03-29T11:31:07;10.60;99.90
5461;DHT22;2753;49.196;8.286;2024-03-29T11:36:13;10.70;99.90
5461;DHT22;2753;49.196;8.286;2024-03-29T11:38:39;10.70;99.90
5461;DHT22;2753;49.196;8.286;2024-03-29T11:41:13;10.80;99.90
5461;DHT22;2753;49.196;8.286;2024-03-29T11:43:39;10.80;99.90
5461;DHT22;2753;49.196;8.286;2024-03-29T11:46:08;10.90;99.90
5461;DHT22;2753;49.196;8.286;2024-03-29T11:48:36;10.90;99.90
5461;DHT22;2753;49.196;8.286;2024-03-29T11:51:03;10.90;99.90
5461;DHT22;2753;49.196;8.286;2024-03-29T11:53:29;10.90;99.90
5461;DHT22;2753;49.196;8.286;2024-03-29T11:55:57;10.90;99.90
5461;DHT22;2753;49.196;8.286;2024-03-29T11:58:25;10.90;99.90
5461;DHT22;2753;49.196;8.286;2024-03-29T12:00:52;10.90;99.90
5461;DHT22;2753;49.196;8.286;2024-03-29T12:03:20;10.90;99.90
5461;DHT22;2753;49.196;8.286;2024-03-29T12:05:48;10.90;99.90
5461;DHT22;2753;49.196;8.286;2024-03-29T12:08:17;10.90;99.90
5461;DHT22;2753;49.196;8.286;2024-03-29T12:10:43;10.90;99.90
5461;DHT22;2753;49.196;8.286;2024-03-29T12:13:10;11.00;99.90
5461;DHT22;2753;49.196;8.286;2024-03-29T12:15:36;11.00;99.90
5461;DHT22;2753;49.196;8.286;2024-03-29T12:18:05;11.00;99.90
5461;DHT22;2753;49.196;8.286;2024-03-29T12:20:35;11.00;99.90
5461;DHT22;2753;49.196;8.286;2024-03-29T12:23:03;11.00;99.90
5461;DHT22;2753;49.196;8.286;2024-03-29T12:25:37;11.00;99.90
5461;DHT22;2753;49.196;8.286;2024-03-29T12:28:03;11.00;99.90
5461;DHT22;2753;49.196;8.286;2024-03-29T12:30:30;11.00;99.90
5461;DHT22;2753;49.196;8.286;2024-03-29T12:33:11;11.00;99.90
5461;DHT22;2753;49.196;8.286;2024-03-29T12:35:44;11.00;99.90
5461;DHT22;2753;49.196;8.286;2024-03-29T12:38:12;11.00;99.90
5461;DHT22;2753;49.196;8.286;2024-03-29T12:40:45;11.00;99.90
5461;DHT22;2753;49.196;8.286;2024-03-29T12:43:13;11.00;99.90
5461;DHT22;2753;49.196;8.286;2024-03-29T12:45:41;11.00;99.90
5461;DHT22;2753;49.196;8.286;2024-03-29T12:48:17;11.00;99.90
5461;DHT22;2753;49.196;8.286;2024-03-29T12:50:45;11.00;99.90
5461;DHT22;2753;49.196;8.286;2024-03-29T12:53:13;11.00;99.90
5461;DHT22;2753;49.196;8.286;2024-03-29T12:55:44;11.00;99.90
5461;DHT22;2753;49.196;8.286;2024-03-29T12:58:12;11.00;99.90
5461;DHT22;2753;49.196;8.286;2024-03-29T13:00:38;11.00;99.90
5461;DHT22;2753;49.196;8.286;2024-03-29T13:03:05;11.00;99.90
5461;DHT22;2753;49.196;8.286;2024-03-29T13:05:31;11.00;99.90
5461;DHT22;2753;49.196;8.286;2024-03-29T13:08:04;11.00;99.90
5461;DHT22;2753;49.196;8.286;2024-03-29T13:10:33;11.00;99.90
5461;DHT22;2753;49.196;8.286;2024-03-29T13:12:59;11.10;99.90
5461;DHT22;2753;49.196;8.286;2024-03-29T13:15:26;11.10;99.90
5461;DHT22;2753;49.196;8.286;2024-03-29T13:17:56;11.10;99.90
5461;DHT22;2753;49.196;8.286;2024-03-29T13:20:23;11.10;99.90
5461;DHT22;2753;49.196;8.286;2024-03-29T13:22:50;11.10;99.90
5461;DHT22;2753;49.196;8.286;2024-03-29T13:25:17;11.10;99.90
5461;DHT22;2753;49.196;8.286;2024-03-29T13:27:45;11.10;99.90
5461;DHT22;2753;49.196;8.286;2024-03-29T13:30:12;11.20;99.90
5461;DHT22;2753;49.196;8.286;2024-03-29T13:32:39;11.20;99.90
5461;DHT22;2753;49.196;8.286;2024-03-29T13:35:06;11.20;99.90
5461;DHT22;2753;49.196;8.286;2024-03-29T13:37:42;11.20;99.90
5461;DHT22;2753;49.196;8.286;2024-03-29T13:40:15;11.20;99.90
5461;DHT22;2753;49.196;8.286;2024-03-29T13:42:41;11.20;99.90
5461;DHT22;2753;49.196;8.286;2024-03-29T13:45:08;11.20;99.90
5461;DHT22;2753;49.196;8.286;2024-03-29T13:47:39;11.20;99.90
5461;DHT22;2753;49.196;8.286;2024-03-29T13:50:05;11.20;99.90
5461;DHT22;2753;49.196;8.286;2024-03-29T13:52:35;11.20;99.90
5461;DHT22;2753;49.196;8.286;2024-03-29T13:55:01;11.30;99.90
5461;DHT22;2753;49.196;8.286;2024-03-29T13:57:29;12.50;99.90
5461;DHT22;2753;49.196;8.286;2024-03-29T13:59:54;11.40;99.90
5461;DHT22;2753;49.196;8.286;2024-03-29T14:02:20;11.30;99.90
5461;DHT22;2753;49.196;8.286;2024-03-29T14:04:47;11.30;99.90
5461;DHT22;2753;49.196;8.286;2024-03-29T14:07:14;11.40;99.90
5461;DHT22;2753;49.196;8.286;2024-03-29T14:09:41;11.40;99.90
5461;DHT22;2753;49.196;8.286;2024-03-29T14:12:07;11.50;99.90
5461;DHT22;2753;49.196;8.286;2024-03-29T14:14:33;11.50;99.90
5461;DHT22;2753;49.196;8.286;2024-03-29T14:17:00;11.50;99.90
5461;DHT22;2753;49.196;8.286;2024-03-29T14:19:36;11.50;99.90
5461;DHT22;2753;49.196;8.286;2024-03-29T14:22:02;11.50;99.90
5461;DHT22;2753;49.196;8.286;2024-03-29T14:24:28;11.50;99.90
5461;DHT22;2753;49.196;8.286;2024-03-29T14:26:56;11.50;99.90
5461;DHT22;2753;49.196;8.286;2024-03-29T14:29:22;11.60;99.90
5461;DHT22;2753;49.196;8.286;2024-03-29T14:31:51;11.60;99.90
5461;DHT22;2753;49.196;8.286;2024-03-29T14:34:18;11.60;99.90
5461;DHT22;2753;49.196;8.286;2024-03-29T14:36:45;11.60;99.90
5461;DHT22;2753;49.196;8.286;2024-03-29T14:39:11;11.60;99.90
5461;DHT22;2753;49.196;8.286;2024-03-29T14:41:41;11.60;99.90
5461;DHT22;2753;49.196;8.286;2024-03-29T14:44:08;11.60;99.90
5461;DHT22;2753;49.196;8.286;2024-03-29T14:46:34;11.70;99.90
5461;DHT22;2753;49.196;8.286;2024-03-29T14:49:03;11.60;99.90
5461;DHT22;2753;49.196;8.286;2024-03-29T14:51:33;11.70;99.90
5461;DHT22;2753;49.196;8.286;2024-03-29T14:53:59;11.60;99.90
5461;DHT22;2753;49.196;8.286;2024-03-29T14:56:27;11.60;99.90
5461;DHT22;2753;49.196;8.286;2024-03-29T14:58:56;11.70;99.90
5461;DHT22;2753;49.196;8.286;2024-03-29T15:01:22;11.70;99.90
5461;DHT22;2753;49.196;8.286;2024-03-29T15:03:47;11.70;99.90
5461;DHT22;2753;49.196;8.286;2024-03-29T15:06:13;11.70;99.90
5461;DHT22;2753;49.196;8.286;2024-03-29T15:08:38;11.70;99.90
5461;DHT22;2753;49.196;8.286;2024-03-29T15:11:04;11.70;99.90
5461;DHT22;2753;49.196;8.286;2024-03-29T15:13:30;11.70;99.90
5461;DHT22;2753;49.196;8.286;2024-03-29T15:15:56;11.70;99.90
5461;DHT22;2753;49.196;8.286;2024-03-29T15:18:22;11.70;99.90
5461;DHT22;2753;49.196;8.286;2024-03-29T15:20:58;11.70;99.90
5461;DHT22;2753;49.196;8.286;2024-03-29T15:23:25;11.70;99.90
5461;DHT22;2753;49.196;8.286;2024-03-29T15:25:53;11.70;99.90
5461;DHT22;2753;49.196;8.286;2024-03-29T15:28:22;11.80;99.90
5461;DHT22;2753;49.196;8.286;2024-03-29T15:31:14;11.80;99.90
5461;DHT22;2753;49.196;8.286;2024-03-29T15:33:46;11.80;99.90
5461;DHT22;2753;49.196;8.286;2024-03-29T15:36:12;11.80;99.90
5461;DHT22;2753;49.196;8.286;2024-03-29T15:38:38;11.80;99.90
5461;DHT22;2753;49.196;8.286;2024-03-29T15:41:04;11.90;99.90
5461;DHT22;2753;49.196;8.286;2024-03-29T15:43:34;11.80;99.90
5461;DHT22;2753;49.196;8.286;2024-03-29T15:46:04;11.90;99.90
5461;DHT22;2753;49.196;8.286;2024-03-29T15:48:30;11.90;99.90
5461;DHT22;2753;49.196;8.286;2024-03-29T15:50:56;11.90;99.90
5461;DHT22;2753;49.196;8.286;2024-03-29T15:53:21;11.90;99.90
5461;DHT22;2753;49.196;8.286;2024-03-29T15:55:47;11.90;99.90
5461;DHT22;2753;49.196;8.286;2024-03-29T15:58:13;11.90;99.90
5461;DHT22;2753;49.196;8.286;2024-03-29T16:00:39;12.00;99.90
5461;DHT22;2753;49.196;8.286;2024-03-29T16:03:12;11.90;99.90
5461;DHT22;2753;49.196;8.286;2024-03-29T16:05:45;12.00;99.90
5461;DHT22;2753;49.196;8.286;2024-03-29T16:08:15;11.90;99.90
5461;DHT22;2753;49.196;8.286;2024-03-29T16:11:02;11.90;99.90
5461;DHT22;2753;49.196;8.286;2024-03-29T16:13:29;12.00;99.90
5461;DHT22;2753;49.196;8.286;2024-03-29T16:15:56;12.10;99.90
5461;DHT22;2753;49.196;8.286;2024-03-29T16:18:24;12.00;99.90